Time;durP1;ratioP1;P1;durP2;ratioP2;P2;SDS_P1;SDS_P2;PMS_P1;PMS_P2;Temp;Humidity;BMP_temperature;BMP_pressure;BME280_temperature;BME280_humidity;BME280_pressure;Samples;Min_cycle;Max_cycle;Signal;HPM_P1;HPM_P2
2022/03/20 00:00:47;;;;;;;12.20;5.90;;;;;;;;;;4973230;28;20049;-71
2022/03/20 00:03:14;;;;;;;13.73;6.60;;;;;;;;;;4975274;28;20074;-71
2022/03/20 00:05:41;;;;;;;12.82;6.30;;;;;;;;;;4975774;28;20078;-70
2022/03/20 00:08:12;;;;;;;13.82;6.50;;;;;;;;;;4975658;28;20078;-70
2022/03/20 00:10:44;;;;;;;11.45;5.85;;;;;;;;;;4973355;28;20047;-70
2022/03/20 00:13:10;;;;;;;16.55;6.55;;;;;;;;;;4976312;28;20047;-70
2022/03/20 00:15:40;;;;;;;11.85;6.45;;;;;;;;;;4973647;28;20046;-70
2022/03/20 00:18:06;;;;;;;12.48;6.45;;;;;;;;;;4975349;28;20125;-71
2022/03/20 00:20:36;;;;;;;13.52;6.63;;;;;;;;;;4967088;28;20178;-70
2022/03/20 00:23:04;;;;;;;15.70;6.70;;;;;;;;;;4975332;28;20405;-70
2022/03/20 00:25:31;;;;;;;11.20;6.20;;;;;;;;;;4973419;28;20514;-70
2022/03/20 00:27:57;;;;;;;12.20;6.63;;;;;;;;;;4975105;28;20039;-70
2022/03/20 00:30:23;;;;;;;10.93;6.35;;;;;;;;;;4952189;28;20169;-70
2022/03/20 00:32:49;;;;;;;12.73;6.45;;;;;;;;;;4971463;28;20102;-70
2022/03/20 00:35:15;;;;;;;12.35;7.00;;;;;;;;;;4971016;28;20449;-70
2022/03/20 00:37:41;;;;;;;11.30;6.00;;;;;;;;;;4974254;28;20053;-70
2022/03/20 00:40:07;;;;;;;12.15;6.20;;;;;;;;;;4973501;28;20043;-70
2022/03/20 00:42:33;;;;;;;12.55;7.18;;;;;;;;;;4973273;28;20039;-70
2022/03/20 00:44:59;;;;;;;12.77;6.72;;;;;;;;;;4975619;28;20367;-69
2022/03/20 00:47:25;;;;;;;14.52;6.72;;;;;;;;;;4974918;28;20042;-70
2022/03/20 00:49:51;;;;;;;12.70;6.97;;;;;;;;;;4971933;28;20098;-69
2022/03/20 00:52:17;;;;;;;12.88;6.65;;;;;;;;;;4972010;28;20195;-70
2022/03/20 00:54:43;;;;;;;14.40;7.55;;;;;;;;;;4972110;28;20079;-70
2022/03/20 00:57:09;;;;;;;14.05;6.57;;;;;;;;;;4971682;28;20047;-70
2022/03/20 00:59:35;;;;;;;16.45;7.30;;;;;;;;;;4971868;28;20046;-70
2022/03/20 01:02:01;;;;;;;10.90;6.55;;;;;;;;;;4973603;28;20075;-70
2022/03/20 01:04:27;;;;;;;11.60;6.72;;;;;;;;;;4974559;28;20077;-70
2022/03/20 01:07:00;;;;;;;14.57;7.03;;;;;;;;;;4974224;28;20494;-70
2022/03/20 01:09:26;;;;;;;12.27;6.32;;;;;;;;;;4974746;28;20043;-70
2022/03/20 01:11:52;;;;;;;15.20;7.10;;;;;;;;;;4973276;28;20453;-70
2022/03/20 01:14:18;;;;;;;14.10;7.47;;;;;;;;;;4980775;28;20050;-69
2022/03/20 01:16:44;;;;;;;14.82;7.13;;;;;;;;;;4972573;28;20146;-69
2022/03/20 01:19:11;;;;;;;13.75;7.10;;;;;;;;;;4975294;28;20239;-69
2022/03/20 01:21:37;;;;;;;12.95;6.63;;;;;;;;;;4971985;28;20051;-70
2022/03/20 01:24:03;;;;;;;13.75;7.10;;;;;;;;;;4969493;28;20093;-70
2022/03/20 01:26:29;;;;;;;14.50;7.55;;;;;;;;;;4971576;28;20054;-70
2022/03/20 01:28:56;;;;;;;15.38;7.80;;;;;;;;;;4972932;28;20046;-70
2022/03/20 01:31:22;;;;;;;17.65;7.55;;;;;;;;;;4974046;28;20039;-70
2022/03/20 01:33:48;;;;;;;17.67;8.25;;;;;;;;;;4966798;28;20043;-70
2022/03/20 01:36:14;;;;;;;15.02;8.65;;;;;;;;;;4973532;28;20058;-70
2022/03/20 01:38:40;;;;;;;16.98;7.75;;;;;;;;;;4972818;28;20508;-70
2022/03/20 01:41:06;;;;;;;16.27;8.55;;;;;;;;;;4973257;28;20121;-70
2022/03/20 01:43:32;;;;;;;14.77;7.50;;;;;;;;;;4974068;28;20405;-70
2022/03/20 01:45:58;;;;;;;13.40;7.57;;;;;;;;;;4973447;28;20138;-70
2022/03/20 01:48:24;;;;;;;16.48;8.70;;;;;;;;;;4973993;28;20042;-70
2022/03/20 01:50:50;;;;;;;17.10;8.23;;;;;;;;;;4974209;28;20138;-70
2022/03/20 01:53:19;;;;;;;16.23;8.05;;;;;;;;;;4973338;28;20086;-70
2022/03/20 01:55:46;;;;;;;13.95;8.20;;;;;;;;;;4973126;28;20050;-70
2022/03/20 01:58:14;;;;;;;13.43;7.90;;;;;;;;;;4971924;28;20077;-70
2022/03/20 02:00:40;;;;;;;14.70;8.18;;;;;;;;;;4971300;28;20130;-70
2022/03/20 02:03:06;;;;;;;13.25;7.78;;;;;;;;;;4971360;28;20042;-70
2022/03/20 02:05:32;;;;;;;13.27;7.80;;;;;;;;;;4973880;28;20122;-70
2022/03/20 02:07:59;;;;;;;16.65;8.50;;;;;;;;;;4966662;28;20081;-70
2022/03/20 02:10:35;;;;;;;15.60;7.43;;;;;;;;;;4956879;28;20043;-69
2022/03/20 02:13:01;;;;;;;16.58;8.63;;;;;;;;;;4972486;28;20078;-69
2022/03/20 02:15:27;;;;;;;17.65;8.80;;;;;;;;;;4974308;28;20085;-69
2022/03/20 02:17:54;;;;;;;15.45;9.07;;;;;;;;;;4973055;28;20046;-69
2022/03/20 02:20:22;;;;;;;16.67;8.48;;;;;;;;;;4969623;28;20050;-70
2022/03/20 02:22:48;;;;;;;17.15;8.43;;;;;;;;;;4956525;28;20768;-69
2022/03/20 02:25:15;;;;;;;15.90;9.13;;;;;;;;;;4966202;28;20043;-70
2022/03/20 02:27:41;;;;;;;18.88;9.70;;;;;;;;;;4971919;28;20054;-71
2022/03/20 02:30:13;;;;;;;18.45;9.20;;;;;;;;;;4971915;28;20053;-71
2022/03/20 02:32:45;;;;;;;17.38;10.10;;;;;;;;;;4973073;28;20070;-70
2022/03/20 02:35:13;;;;;;;18.00;9.98;;;;;;;;;;4973544;28;20481;-70
2022/03/20 02:37:41;;;;;;;15.25;9.75;;;;;;;;;;4972768;28;20047;-70
2022/03/20 02:40:07;;;;;;;17.48;10.48;;;;;;;;;;4973006;28;20050;-70
2022/03/20 02:42:35;;;;;;;22.73;11.27;;;;;;;;;;4971547;28;20049;-70
2022/03/20 02:45:07;;;;;;;17.45;10.25;;;;;;;;;;4970489;28;20445;-70
2022/03/20 02:47:34;;;;;;;16.70;9.68;;;;;;;;;;4972577;28;20130;-70
2022/03/20 02:50:08;;;;;;;19.75;10.60;;;;;;;;;;4970687;28;20395;-69
2022/03/20 02:52:40;;;;;;;20.90;11.30;;;;;;;;;;4960701;28;20186;-70
2022/03/20 02:55:06;;;;;;;15.32;9.18;;;;;;;;;;4974112;28;20043;-69
2022/03/20 02:57:33;;;;;;;18.42;10.82;;;;;;;;;;4973844;28;20454;-69
2022/03/20 03:00:03;;;;;;;18.90;11.10;;;;;;;;;;4963837;28;20043;-69
2022/03/20 03:02:30;;;;;;;19.25;11.57;;;;;;;;;;4970896;28;20043;-69
2022/03/20 03:04:59;;;;;;;22.95;11.75;;;;;;;;;;4972771;28;20391;-70
2022/03/20 03:07:29;;;;;;;16.67;11.13;;;;;;;;;;4971788;28;20414;-70
2022/03/20 03:10:55;;;;;;;18.73;11.57;;;;;;;;;;4969735;28;20502;-70
2022/03/20 03:12:49;;;;;;;19.73;11.98;;;;;;;;;;4984439;28;20055;-70
2022/03/20 03:15:19;;;;;;;20.08;11.82;;;;;;;;;;4975308;28;20039;-71
2022/03/20 03:17:45;;;;;;;20.85;13.05;;;;;;;;;;4974444;28;20051;-70
2022/03/20 03:20:11;;;;;;;18.77;11.15;;;;;;;;;;4971901;28;20045;-70
2022/03/20 03:22:38;;;;;;;18.58;12.20;;;;;;;;;;4970343;28;20490;-70
2022/03/20 03:25:05;;;;;;;21.00;12.13;;;;;;;;;;4968668;28;20502;-71
2022/03/20 03:27:31;;;;;;;16.95;11.90;;;;;;;;;;4972689;28;20035;-70
2022/03/20 03:29:58;;;;;;;19.00;11.98;;;;;;;;;;4964920;28;20058;-70
2022/03/20 03:32:24;;;;;;;17.67;10.75;;;;;;;;;;4967825;28;20097;-70
2022/03/20 03:37:35;;;;;;;20.73;12.15;;;;;;;;;;4971515;28;20059;-71
2022/03/20 03:40:03;;;;;;;18.77;12.05;;;;;;;;;;4964353;28;20047;-70
2022/03/20 03:42:30;;;;;;;19.65;13.20;;;;;;;;;;4969177;28;20082;-70
2022/03/20 03:44:56;;;;;;;18.83;11.57;;;;;;;;;;4972962;28;20344;-71
2022/03/20 03:47:24;;;;;;;21.15;13.57;;;;;;;;;;4971414;28;20089;-70
2022/03/20 03:49:50;;;;;;;18.85;11.85;;;;;;;;;;4970496;28;20058;-71
2022/03/20 03:52:16;;;;;;;22.13;13.48;;;;;;;;;;4975700;28;20517;-70
2022/03/20 03:54:42;;;;;;;20.08;13.00;;;;;;;;;;4975797;28;20051;-70
2022/03/20 03:57:08;;;;;;;20.85;13.68;;;;;;;;;;4976010;28;20113;-70
2022/03/20 03:59:35;;;;;;;20.13;13.20;;;;;;;;;;4975919;28;20113;-70
2022/03/20 04:02:01;;;;;;;24.42;13.65;;;;;;;;;;4974016;28;20050;-70
2022/03/20 04:04:28;;;;;;;20.85;13.27;;;;;;;;;;4974353;28;20050;-70
2022/03/20 04:06:54;;;;;;;23.52;14.38;;;;;;;;;;4974504;28;20453;-70
2022/03/20 04:09:20;;;;;;;24.00;15.00;;;;;;;;;;4974565;28;20047;-70
2022/03/20 04:11:46;;;;;;;21.30;13.40;;;;;;;;;;4960214;28;20057;-70
2022/03/20 04:14:12;;;;;;;23.92;15.35;;;;;;;;;;4974821;28;20042;-70
2022/03/20 04:16:38;;;;;;;21.20;14.98;;;;;;;;;;4956904;28;20482;-70
2022/03/20 04:19:04;;;;;;;20.45;14.27;;;;;;;;;;4974706;28;20039;-71
2022/03/20 04:21:30;;;;;;;22.92;14.98;;;;;;;;;;4973120;28;20050;-70
2022/03/20 04:23:56;;;;;;;22.55;14.27;;;;;;;;;;4967081;28;20039;-70
2022/03/20 04:26:23;;;;;;;23.00;13.48;;;;;;;;;;4963608;28;20047;-70
2022/03/20 04:28:50;;;;;;;21.27;14.52;;;;;;;;;;4975264;28;20043;-70
2022/03/20 04:31:16;;;;;;;22.33;14.13;;;;;;;;;;4972968;28;20049;-70
2022/03/20 04:33:50;;;;;;;21.45;13.70;;;;;;;;;;4975220;28;20039;-70
2022/03/20 04:36:16;;;;;;;27.10;15.75;;;;;;;;;;4975293;28;20058;-70
2022/03/20 04:38:43;;;;;;;21.73;14.90;;;;;;;;;;4974790;28;20083;-70
2022/03/20 04:41:09;;;;;;;21.55;14.75;;;;;;;;;;4974940;28;20046;-70
2022/03/20 04:43:36;;;;;;;21.25;13.75;;;;;;;;;;4974885;28;20042;-70
2022/03/20 04:46:02;;;;;;;25.25;16.05;;;;;;;;;;4974577;28;20045;-70
2022/03/20 04:59:27;;;;;;;24.02;16.02;;;;;;;;;;4974875;28;20058;-69
2022/03/20 05:01:53;;;;;;;26.45;15.25;;;;;;;;;;4974055;28;20049;-70
2022/03/20 05:04:19;;;;;;;20.00;14.10;;;;;;;;;;4971769;28;20054;-71
2022/03/20 05:06:45;;;;;;;22.83;15.15;;;;;;;;;;4972376;28;20109;-70
2022/03/20 05:14:42;;;;;;;24.33;14.07;;;;;;;;;;4969932;28;20050;-69
2022/03/20 05:17:09;;;;;;;23.85;14.63;;;;;;;;;;4973599;28;20505;-70
2022/03/20 05:19:35;;;;;;;24.70;16.08;;;;;;;;;;4974428;28;20047;-70
2022/03/20 05:22:03;;;;;;;25.20;16.10;;;;;;;;;;4967205;28;20447;-70
2022/03/20 05:24:29;;;;;;;25.02;15.73;;;;;;;;;;4968105;28;20408;-70
2022/03/20 05:26:55;;;;;;;23.67;15.88;;;;;;;;;;4962650;28;20046;-70
2022/03/20 05:29:22;;;;;;;25.48;16.52;;;;;;;;;;4972447;28;20066;-70
2022/03/20 05:31:49;;;;;;;21.13;13.48;;;;;;;;;;4970837;28;20046;-70
2022/03/20 05:34:16;;;;;;;21.75;15.02;;;;;;;;;;4972395;28;20051;-70
2022/03/20 05:36:42;;;;;;;20.75;15.25;;;;;;;;;;4973364;28;20050;-70
2022/03/20 05:39:09;;;;;;;25.35;16.33;;;;;;;;;;4973759;28;20042;-70
2022/03/20 05:41:47;;;;;;;26.40;16.42;;;;;;;;;;4972776;28;20049;-70
2022/03/20 05:44:15;;;;;;;24.52;16.25;;;;;;;;;;4970237;28;20046;-70
2022/03/20 05:46:42;;;;;;;25.05;16.05;;;;;;;;;;4973684;28;20472;-70
2022/03/20 05:49:08;;;;;;;24.13;15.50;;;;;;;;;;4974341;28;20039;-69
2022/03/20 05:51:34;;;;;;;26.10;16.83;;;;;;;;;;4972470;28;20062;-69
2022/03/20 05:54:01;;;;;;;25.00;16.65;;;;;;;;;;4972497;28;20055;-70
2022/03/20 05:59:12;;;;;;;24.83;15.20;;;;;;;;;;4970528;28;20046;-69
2022/03/20 06:01:38;;;;;;;29.55;16.75;;;;;;;;;;4972055;28;20609;-69
2022/03/20 06:04:05;;;;;;;27.90;16.70;;;;;;;;;;4972777;28;20171;-70
2022/03/20 06:06:31;;;;;;;25.10;17.23;;;;;;;;;;4971532;28;20083;-69
2022/03/20 06:08:58;;;;;;;23.55;15.93;;;;;;;;;;4973315;28;20085;-69
2022/03/20 06:11:24;;;;;;;24.60;16.95;;;;;;;;;;4973854;28;20501;-69
2022/03/20 06:13:50;;;;;;;24.08;17.15;;;;;;;;;;4972875;28;20042;-69
2022/03/20 06:16:17;;;;;;;24.88;16.08;;;;;;;;;;4955776;28;20050;-69
2022/03/20 06:18:44;;;;;;;25.30;17.50;;;;;;;;;;4973590;28;20062;-69
2022/03/20 06:21:13;;;;;;;26.42;15.38;;;;;;;;;;4970642;28;20513;-70
2022/03/20 06:23:39;;;;;;;23.40;16.17;;;;;;;;;;4965292;28;20047;-68
2022/03/20 06:26:06;;;;;;;25.30;17.48;;;;;;;;;;4973059;28;20049;-69
2022/03/20 06:28:33;;;;;;;25.58;15.90;;;;;;;;;;4972001;28;20047;-69
2022/03/20 06:30:59;;;;;;;22.80;16.35;;;;;;;;;;4973987;28;20717;-69
2022/03/20 06:33:25;;;;;;;25.65;16.92;;;;;;;;;;4965400;28;20039;-68
2022/03/20 06:35:52;;;;;;;25.60;16.98;;;;;;;;;;4973045;28;20046;-69
2022/03/20 06:38:18;;;;;;;24.00;17.25;;;;;;;;;;4970960;28;20043;-69
2022/03/20 06:40:44;;;;;;;25.30;17.70;;;;;;;;;;4970262;28;20606;-69
2022/03/20 06:43:10;;;;;;;26.52;18.05;;;;;;;;;;4972466;28;20038;-68
2022/03/20 06:45:36;;;;;;;25.58;17.52;;;;;;;;;;4963313;28;20055;-69
2022/03/20 06:48:03;;;;;;;26.27;17.40;;;;;;;;;;4972890;28;20518;-69
2022/03/20 06:50:29;;;;;;;24.17;17.10;;;;;;;;;;4971586;28;20055;-69
2022/03/20 06:53:01;;;;;;;23.83;16.70;;;;;;;;;;4965983;28;20051;-69
2022/03/20 06:55:27;;;;;;;26.27;17.58;;;;;;;;;;4973040;28;20442;-70
2022/03/20 06:57:53;;;;;;;34.25;21.33;;;;;;;;;;4973136;28;20051;-70
2022/03/20 07:00:19;;;;;;;35.65;24.27;;;;;;;;;;4971915;28;20379;-69
2022/03/20 07:02:45;;;;;;;41.40;26.17;;;;;;;;;;4966922;28;20469;-69
2022/03/20 07:05:11;;;;;;;29.02;18.63;;;;;;;;;;4973306;28;20070;-69
2022/03/20 07:07:37;;;;;;;43.03;28.17;;;;;;;;;;4967442;28;20510;-70
2022/03/20 07:10:06;;;;;;;26.65;19.15;;;;;;;;;;4973657;28;20413;-70
2022/03/20 07:12:32;;;;;;;30.73;21.33;;;;;;;;;;4973127;28;20054;-69
2022/03/20 07:14:58;;;;;;;27.55;19.85;;;;;;;;;;4973314;28;20043;-70
2022/03/20 07:17:24;;;;;;;25.20;17.42;;;;;;;;;;4969068;28;20050;-70
2022/03/20 07:19:50;;;;;;;29.20;21.05;;;;;;;;;;4972145;28;20477;-70
2022/03/20 07:22:22;;;;;;;28.02;16.67;;;;;;;;;;4972757;28;20482;-70
2022/03/20 07:24:48;;;;;;;25.33;18.15;;;;;;;;;;4971107;28;20058;-70
2022/03/20 07:29:59;;;;;;;27.02;17.63;;;;;;;;;;4978981;28;20050;-70
2022/03/20 07:32:25;;;;;;;25.70;17.95;;;;;;;;;;4987917;28;20117;-70
2022/03/20 07:34:52;;;;;;;26.27;18.00;;;;;;;;;;4974000;28;20039;-69
2022/03/20 07:37:19;;;;;;;22.95;16.80;;;;;;;;;;4975589;28;20469;-69
2022/03/20 07:39:47;;;;;;;21.08;16.75;;;;;;;;;;4975437;28;20086;-69
2022/03/20 07:42:16;;;;;;;24.63;17.38;;;;;;;;;;4974805;28;20066;-69
2022/03/20 07:44:42;;;;;;;25.60;17.38;;;;;;;;;;4976751;28;20035;-69
2022/03/20 07:47:09;;;;;;;25.20;17.48;;;;;;;;;;4974955;28;20453;-70
2022/03/20 07:49:39;;;;;;;25.10;17.77;;;;;;;;;;4975630;28;20065;-70
2022/03/20 07:52:05;;;;;;;26.83;17.00;;;;;;;;;;4975958;28;20043;-69
2022/03/20 07:54:32;;;;;;;25.52;17.45;;;;;;;;;;4974792;28;20501;-70
2022/03/20 07:56:58;;;;;;;28.98;18.90;;;;;;;;;;4975579;28;20051;-69
2022/03/20 07:59:24;;;;;;;25.80;18.35;;;;;;;;;;4975667;28;20125;-69
2022/03/20 08:01:50;;;;;;;22.85;16.92;;;;;;;;;;4976372;28;20122;-69
2022/03/20 08:04:16;;;;;;;26.15;17.88;;;;;;;;;;4971875;28;20046;-69
2022/03/20 08:06:42;;;;;;;26.17;17.63;;;;;;;;;;4974625;28;20055;-70
2022/03/20 08:09:08;;;;;;;24.52;18.02;;;;;;;;;;4976664;28;20389;-70
2022/03/20 08:11:34;;;;;;;26.60;18.50;;;;;;;;;;4976440;28;20039;-69
2022/03/20 08:14:00;;;;;;;25.23;18.15;;;;;;;;;;4975267;28;20118;-69
2022/03/20 08:16:27;;;;;;;27.00;17.33;;;;;;;;;;4976586;28;20050;-69
2022/03/20 08:18:53;;;;;;;29.13;20.27;;;;;;;;;;4975685;28;20126;-70
2022/03/20 08:21:19;;;;;;;29.70;17.33;;;;;;;;;;4975909;28;20222;-69
2022/03/20 08:23:46;;;;;;;27.15;19.50;;;;;;;;;;4974971;28;20078;-69
2022/03/20 08:26:12;;;;;;;26.45;18.23;;;;;;;;;;4976206;28;20053;-70
2022/03/20 08:28:39;;;;;;;26.20;18.65;;;;;;;;;;4975372;28;20049;-69
2022/03/20 08:31:08;;;;;;;24.85;19.13;;;;;;;;;;4976458;28;20043;-69
2022/03/20 08:33:34;;;;;;;23.02;16.65;;;;;;;;;;4975602;28;20114;-69
2022/03/20 08:36:01;;;;;;;26.80;18.20;;;;;;;;;;4975918;28;20038;-69
2022/03/20 08:38:28;;;;;;;26.42;18.33;;;;;;;;;;4974541;28;20134;-70
2022/03/20 08:40:54;;;;;;;29.33;18.67;;;;;;;;;;4974837;28;20387;-70
2022/03/20 08:43:21;;;;;;;25.38;16.35;;;;;;;;;;4975942;28;20092;-69
2022/03/20 08:45:47;;;;;;;29.40;18.50;;;;;;;;;;4975596;28;20053;-70
2022/03/20 08:48:13;;;;;;;26.75;18.90;;;;;;;;;;4975526;28;20082;-71
2022/03/20 08:50:39;;;;;;;27.00;19.40;;;;;;;;;;4974817;28;20089;-70
2022/03/20 08:53:05;;;;;;;32.05;18.52;;;;;;;;;;4974325;28;20155;-70
2022/03/20 08:55:33;;;;;;;28.83;19.80;;;;;;;;;;4975642;28;20051;-69
2022/03/20 08:57:59;;;;;;;27.08;18.77;;;;;;;;;;4975756;28;20051;-70
2022/03/20 09:00:26;;;;;;;28.55;19.25;;;;;;;;;;4974648;28;20039;-70
2022/03/20 09:02:53;;;;;;;27.67;19.40;;;;;;;;;;4975565;28;20050;-69
2022/03/20 09:05:19;;;;;;;29.00;19.45;;;;;;;;;;4973824;28;20050;-69
2022/03/20 09:07:46;;;;;;;26.27;18.73;;;;;;;;;;4974944;28;20082;-69
2022/03/20 09:10:14;;;;;;;25.27;17.00;;;;;;;;;;4963865;28;20099;-70
2022/03/20 09:12:42;;;;;;;26.60;19.63;;;;;;;;;;4970661;28;20133;-70
2022/03/20 09:15:12;;;;;;;27.63;19.27;;;;;;;;;;4956128;29;20051;-69
2022/03/20 09:20:22;;;;;;;28.85;20.13;;;;;;;;;;4961778;28;20511;-69
2022/03/20 09:22:48;;;;;;;27.45;19.52;;;;;;;;;;4973750;28;20174;-70
2022/03/20 09:25:14;;;;;;;28.77;19.88;;;;;;;;;;4975252;28;20043;-69
2022/03/20 09:27:40;;;;;;;25.08;20.40;;;;;;;;;;4975002;28;20047;-70
2022/03/20 09:30:07;;;;;;;34.60;20.27;;;;;;;;;;4971705;28;20047;-70
2022/03/20 09:32:33;;;;;;;27.23;18.33;;;;;;;;;;4973522;28;20042;-69
2022/03/20 09:34:59;;;;;;;26.20;19.63;;;;;;;;;;4973264;28;20055;-70
2022/03/20 09:37:26;;;;;;;27.63;19.63;;;;;;;;;;4974938;28;20050;-69
2022/03/20 09:39:52;;;;;;;27.88;20.02;;;;;;;;;;4974166;28;20057;-70
2022/03/20 09:42:21;;;;;;;27.60;20.25;;;;;;;;;;4962742;28;20047;-69
2022/03/20 09:44:49;;;;;;;28.25;21.63;;;;;;;;;;4974781;28;20055;-70
2022/03/20 09:47:17;;;;;;;29.90;20.63;;;;;;;;;;4974539;28;20082;-69
2022/03/20 09:49:44;;;;;;;25.55;19.80;;;;;;;;;;4974704;28;20059;-68
2022/03/20 09:52:10;;;;;;;29.83;19.25;;;;;;;;;;4974030;28;20039;-71
2022/03/20 09:54:36;;;;;;;28.60;20.17;;;;;;;;;;4968696;28;20055;-69
2022/03/20 09:57:03;;;;;;;28.20;18.73;;;;;;;;;;4967037;28;20057;-69
2022/03/20 09:59:29;;;;;;;30.50;20.30;;;;;;;;;;4959689;28;20085;-71
2022/03/20 10:02:01;;;;;;;29.17;20.67;;;;;;;;;;4974325;28;20063;-70
2022/03/20 10:04:27;;;;;;;29.63;21.30;;;;;;;;;;4987940;28;20101;-70
2022/03/20 10:06:53;;;;;;;28.05;21.88;;;;;;;;;;4972715;28;20086;-70
2022/03/20 10:09:19;;;;;;;29.20;21.08;;;;;;;;;;4973942;28;20074;-69
2022/03/20 10:11:55;;;;;;;27.35;21.00;;;;;;;;;;4973083;28;20043;-70
2022/03/20 10:14:26;;;;;;;28.08;18.95;;;;;;;;;;4972254;28;20050;-70
2022/03/20 10:17:09;;;;;;;28.23;21.17;;;;;;;;;;4972196;28;20046;-69
2022/03/20 10:19:35;;;;;;;29.73;21.33;;;;;;;;;;4970133;28;20055;-70
2022/03/20 10:22:01;;;;;;;28.27;22.52;;;;;;;;;;4974221;28;20050;-70
2022/03/20 10:24:28;;;;;;;28.33;20.88;;;;;;;;;;4973813;28;20129;-70
2022/03/20 10:27:00;;;;;;;29.73;21.98;;;;;;;;;;4971548;28;20046;-69
2022/03/20 10:29:26;;;;;;;27.92;21.92;;;;;;;;;;4973136;28;20050;-70
2022/03/20 10:31:53;;;;;;;29.35;20.00;;;;;;;;;;4969780;28;20043;-70
2022/03/20 10:34:19;;;;;;;28.23;20.63;;;;;;;;;;4974183;28;20490;-69
2022/03/20 10:36:46;;;;;;;32.00;21.63;;;;;;;;;;4973431;28;20051;-70
2022/03/20 10:39:15;;;;;;;29.75;21.77;;;;;;;;;;4973695;28;20055;-70
2022/03/20 10:41:41;;;;;;;30.27;21.52;;;;;;;;;;4972361;28;20137;-69
2022/03/20 10:44:15;;;;;;;31.83;21.60;;;;;;;;;;4974091;28;20065;-70
2022/03/20 10:46:41;;;;;;;28.60;20.17;;;;;;;;;;4971840;28;20051;-69
2022/03/20 10:49:08;;;;;;;29.33;22.10;;;;;;;;;;4970331;28;20454;-69
2022/03/20 10:51:38;;;;;;;30.60;20.88;;;;;;;;;;4968316;28;20094;-69
2022/03/20 10:54:14;;;;;;;32.22;22.05;;;;;;;;;;4956586;28;20064;-69
2022/03/20 10:56:53;;;;;;;32.70;22.60;;;;;;;;;;4971006;28;20043;-69
2022/03/20 10:59:19;;;;;;;26.48;19.23;;;;;;;;;;4953399;29;20402;-69
2022/03/20 11:01:45;;;;;;;28.83;21.58;;;;;;;;;;4971271;28;20373;-69
2022/03/20 11:04:12;;;;;;;27.85;21.88;;;;;;;;;;4977507;28;20043;-69
2022/03/20 11:06:41;;;;;;;33.25;21.70;;;;;;;;;;4960429;28;20051;-69
2022/03/20 11:09:07;;;;;;;28.27;21.75;;;;;;;;;;4971701;28;20051;-68
2022/03/20 11:11:34;;;;;;;33.50;22.73;;;;;;;;;;4976737;28;20175;-69
2022/03/20 11:14:02;;;;;;;29.40;22.58;;;;;;;;;;4977362;28;20082;-69
2022/03/20 11:16:29;;;;;;;30.23;21.98;;;;;;;;;;4976327;28;20590;-69
2022/03/20 11:18:57;;;;;;;30.80;21.23;;;;;;;;;;4977343;28;20050;-69
2022/03/20 11:21:27;;;;;;;30.55;22.85;;;;;;;;;;4975671;28;20047;-69
2022/03/20 11:23:54;;;;;;;28.73;21.15;;;;;;;;;;4982055;28;20043;-69
2022/03/20 11:26:25;;;;;;;30.85;23.33;;;;;;;;;;4975251;28;20138;-69
2022/03/20 11:28:54;;;;;;;33.38;22.40;;;;;;;;;;4958182;29;20047;-69
2022/03/20 11:31:21;;;;;;;29.83;22.35;;;;;;;;;;4969671;28;20055;-69
2022/03/20 11:33:48;;;;;;;31.13;22.63;;;;;;;;;;4970740;28;20089;-69
2022/03/20 11:36:14;;;;;;;30.63;22.38;;;;;;;;;;4975581;28;20051;-69
2022/03/20 11:38:41;;;;;;;30.05;22.63;;;;;;;;;;4966366;28;20047;-69
2022/03/20 11:41:07;;;;;;;29.50;23.45;;;;;;;;;;4976528;28;20039;-69
2022/03/20 11:43:34;;;;;;;31.77;23.23;;;;;;;;;;4976324;28;20047;-69
2022/03/20 11:46:15;;;;;;;30.35;22.77;;;;;;;;;;4976959;28;20051;-69
2022/03/20 11:48:41;;;;;;;27.60;22.23;;;;;;;;;;4976685;28;20421;-68
2022/03/20 11:51:08;;;;;;;31.75;22.73;;;;;;;;;;4976519;28;20050;-69
2022/03/20 11:53:37;;;;;;;31.60;22.23;;;;;;;;;;4967439;28;20553;-69
2022/03/20 11:56:03;;;;;;;35.90;23.58;;;;;;;;;;4958216;28;20058;-69
2022/03/20 11:58:41;;;;;;;29.55;21.40;;;;;;;;;;4975377;28;20414;-69
2022/03/20 12:01:09;;;;;;;29.10;20.38;;;;;;;;;;4975442;28;20410;-70
2022/03/20 12:03:53;;;;;;;28.85;22.27;;;;;;;;;;4967253;28;20577;-70
2022/03/20 12:06:26;;;;;;;31.27;21.63;;;;;;;;;;4962326;28;20125;-69
2022/03/20 12:08:52;;;;;;;35.28;22.25;;;;;;;;;;4976146;28;20047;-69
2022/03/20 12:11:26;;;;;;;28.92;23.35;;;;;;;;;;4975068;28;20059;-69
2022/03/20 12:14:20;;;;;;;32.92;23.55;;;;;;;;;;4974461;28;20050;-69
2022/03/20 12:16:45;;;;;;;31.63;23.02;;;;;;;;;;4974337;28;20122;-69
2022/03/20 12:19:32;;;;;;;25.60;18.63;;;;;;;;;;4973690;28;20173;-69
2022/03/20 12:22:27;;;;;;;30.00;22.35;;;;;;;;;;4967279;28;20398;-70
2022/03/20 12:24:54;;;;;;;29.25;19.50;;;;;;;;;;4970126;28;20414;-70
2022/03/20 12:27:23;;;;;;;29.02;21.75;;;;;;;;;;4973305;28;20050;-70
2022/03/20 12:29:49;;;;;;;30.30;22.58;;;;;;;;;;4975534;28;20043;-70
2022/03/20 12:32:15;;;;;;;27.85;21.35;;;;;;;;;;4995198;28;20054;-70
2022/03/20 12:34:43;;;;;;;33.17;23.05;;;;;;;;;;4972592;28;20438;-70
2022/03/20 12:37:27;;;;;;;30.20;23.02;;;;;;;;;;4973484;28;20051;-69
2022/03/20 12:39:57;;;;;;;30.10;21.13;;;;;;;;;;4966093;28;20102;-69
2022/03/20 12:42:24;;;;;;;30.33;21.35;;;;;;;;;;4974402;28;20101;-70
2022/03/20 12:44:51;;;;;;;28.33;20.02;;;;;;;;;;4975536;28;20090;-70
2022/03/20 12:47:17;;;;;;;29.05;21.75;;;;;;;;;;4976046;28;20043;-70
2022/03/20 12:49:45;;;;;;;30.13;21.92;;;;;;;;;;4972747;28;20083;-68
2022/03/20 12:52:12;;;;;;;34.22;24.13;;;;;;;;;;4956509;29;20051;-69
2022/03/20 12:54:38;;;;;;;30.38;22.27;;;;;;;;;;4971180;28;20193;-69
2022/03/20 12:57:04;;;;;;;29.85;22.60;;;;;;;;;;4974584;28;20058;-69
2022/03/20 12:59:30;;;;;;;28.83;22.38;;;;;;;;;;4974777;28;20046;-69
2022/03/20 13:01:57;;;;;;;29.83;21.83;;;;;;;;;;4975792;28;20166;-69
2022/03/20 13:04:24;;;;;;;30.48;23.45;;;;;;;;;;4975301;28;20514;-69
2022/03/20 13:06:51;;;;;;;29.98;22.98;;;;;;;;;;4975429;28;20047;-69
2022/03/20 13:09:17;;;;;;;30.98;22.77;;;;;;;;;;4972660;28;20465;-69
2022/03/20 13:11:53;;;;;;;28.25;20.85;;;;;;;;;;4972431;28;20070;-69
2022/03/20 13:14:21;;;;;;;32.50;23.13;;;;;;;;;;4966068;28;20043;-69
2022/03/20 13:16:58;;;;;;;29.60;21.83;;;;;;;;;;4975371;28;20097;-69
2022/03/20 13:19:25;;;;;;;30.08;21.75;;;;;;;;;;4974720;28;20055;-69
2022/03/20 13:21:51;;;;;;;30.38;23.20;;;;;;;;;;4972422;28;20493;-69
2022/03/20 13:24:34;;;;;;;30.80;22.98;;;;;;;;;;4972951;28;20051;-69
2022/03/20 13:27:01;;;;;;;28.67;21.10;;;;;;;;;;4975045;28;20054;-70
2022/03/20 13:29:27;;;;;;;28.88;21.50;;;;;;;;;;4974232;28;20106;-70
2022/03/20 13:32:05;;;;;;;29.95;23.40;;;;;;;;;;4969234;28;20047;-70
2022/03/20 13:34:32;;;;;;;29.88;22.35;;;;;;;;;;4972461;28;20043;-69
2022/03/20 13:37:06;;;;;;;30.70;23.27;;;;;;;;;;4975112;28;20137;-69
2022/03/20 13:39:32;;;;;;;30.20;22.38;;;;;;;;;;4973353;28;20082;-69
2022/03/20 13:41:58;;;;;;;30.38;22.02;;;;;;;;;;4971545;28;20101;-70
2022/03/20 13:44:24;;;;;;;32.22;22.38;;;;;;;;;;4971931;28;20063;-69
2022/03/20 13:46:50;;;;;;;29.83;22.25;;;;;;;;;;4968049;28;20039;-69
2022/03/20 13:49:17;;;;;;;27.23;20.48;;;;;;;;;;4965996;28;20162;-70
2022/03/20 13:51:49;;;;;;;30.65;21.77;;;;;;;;;;4963607;28;20129;-70
2022/03/20 13:54:20;;;;;;;30.40;22.20;;;;;;;;;;4973380;28;20569;-70
2022/03/20 13:56:47;;;;;;;31.67;23.23;;;;;;;;;;4972028;28;20421;-70
2022/03/20 13:59:14;;;;;;;29.13;22.15;;;;;;;;;;4972541;28;20046;-69
2022/03/20 14:01:43;;;;;;;28.55;21.40;;;;;;;;;;4975129;28;20077;-69
2022/03/20 14:04:13;;;;;;;31.83;22.67;;;;;;;;;;4970990;28;20109;-70
2022/03/20 14:06:40;;;;;;;27.02;20.60;;;;;;;;;;4972549;28;20122;-69
2022/03/20 14:09:07;;;;;;;28.08;20.58;;;;;;;;;;4973183;28;20051;-70
2022/03/20 14:11:35;;;;;;;30.10;22.27;;;;;;;;;;4974322;28;20058;-70
2022/03/20 14:14:01;;;;;;;32.55;22.48;;;;;;;;;;4973512;28;20074;-69
2022/03/20 14:16:27;;;;;;;27.52;22.02;;;;;;;;;;4968731;28;20047;-70
2022/03/20 14:18:53;;;;;;;28.98;21.90;;;;;;;;;;4974032;28;20053;-69
2022/03/20 14:21:22;;;;;;;26.70;20.35;;;;;;;;;;4972036;28;20121;-70
2022/03/20 14:23:51;;;;;;;31.08;20.83;;;;;;;;;;4973796;28;20050;-69
2022/03/20 14:26:19;;;;;;;29.13;22.33;;;;;;;;;;4974343;28;20179;-69
2022/03/20 14:28:45;;;;;;;28.17;22.73;;;;;;;;;;4973515;28;20529;-69
2022/03/20 14:40:00;;;;;;;29.35;21.90;;;;;;;;;;4973331;28;20047;-69
2022/03/20 14:42:30;;;;;;;31.83;22.75;;;;;;;;;;4944309;28;20050;-69
2022/03/20 14:44:56;;;;;;;28.20;21.77;;;;;;;;;;4973574;28;20043;-70
2022/03/20 14:47:25;;;;;;;26.98;22.17;;;;;;;;;;4972840;28;20058;-71
2022/03/20 14:49:51;;;;;;;30.55;22.73;;;;;;;;;;4971977;28;20057;-70
2022/03/20 14:52:20;;;;;;;29.27;22.15;;;;;;;;;;4965933;28;20050;-72
2022/03/20 14:54:47;;;;;;;27.05;21.20;;;;;;;;;;4954331;29;20142;-70
2022/03/20 14:57:13;;;;;;;27.25;22.02;;;;;;;;;;4966169;28;20083;-70